East Dennis, Massachusetts
Current Conditions -  °F | °C
As of 2:21 AM on Thursday 23 Oct 2014 (Local Time) from KHYA Reporting Station
Light Rain Light Rain  
Wind Chill: 60°   Ceiling: 9500
Heat Index: 60°   Visibility: 10mi
Dew Point: 58°   Wind: 9mph
Humidity: 93%   Direction: 40°NE
Pressure: 29.61"   Gusts: NA
Location:  41.74°N, 70.16°W
Report Text: KHYA 230621Z 04008KT 10SM -RA FEW015 SCT028 BKN095 16/14 A2961 RMK AO2 LTG DSNT NE AND E RAB20 P0000 T01560144
Loading
Personal Weather Stations






























Interactive Weather Map
Tropical Storm Tracking
New forecast layout! Learn more

10-Day Weather Forecast

Advertisements
Track Severe Weather on mobile